Time;durP1;ratioP1;P1;durP2;ratioP2;P2;SDS_P1;SDS_P2;PMS_P1;PMS_P2;Temp;Humidity;BMP_temperature;BMP_pressure;BME280_temperature;BME280_humidity;BME280_pressure;Samples;Min_cycle;Max_cycle;Signal;HPM_P1;HPM_P2
2021/06/21 00:01:30;;;;;;;10.90;9.83;;;19.30;99.90;;;;;;5097402;28;20163;-72
2021/06/21 00:03:56;;;;;;;10.67;9.83;;;19.20;99.90;;;;;;5097157;28;20485;-72
2021/06/21 00:06:21;;;;;;;11.20;10.30;;;19.20;99.90;;;;;;5097313;28;20525;-72
2021/06/21 00:08:47;;;;;;;10.30;9.40;;;19.20;99.90;;;;;;5098077;28;20221;-72
2021/06/21 00:11:13;;;;;;;9.67;8.80;;;19.20;99.90;;;;;;5105070;28;20197;-72
2021/06/21 00:13:38;;;;;;;10.73;9.93;;;19.20;99.90;;;;;;5117996;28;20205;-72
2021/06/21 00:16:04;;;;;;;10.00;9.17;;;19.20;99.90;;;;;;5117290;28;20166;-72
2021/06/21 00:18:30;;;;;;;10.03;9.23;;;19.20;99.90;;;;;;5117873;28;20671;-72
2021/06/21 00:20:55;;;;;;;10.27;9.47;;;19.20;99.90;;;;;;5117778;28;20487;-72
2021/06/21 00:23:21;;;;;;;11.00;10.03;;;19.20;99.90;;;;;;5118535;28;20291;-72
2021/06/21 00:25:48;;;;;;;10.47;9.67;;;19.20;99.90;;;;;;5116790;28;20185;-72
2021/06/21 00:28:15;;;;;;;10.67;9.77;;;19.20;99.90;;;;;;5117627;28;20407;-72
2021/06/21 00:30:41;;;;;;;10.63;9.77;;;19.20;99.90;;;;;;5118802;28;20407;-72
2021/06/21 00:33:07;;;;;;;11.07;10.13;;;19.10;99.90;;;;;;5117984;28;20433;-72
2021/06/21 00:35:33;;;;;;;10.40;9.60;;;19.10;99.90;;;;;;5118403;28;20431;-72
2021/06/21 00:37:58;;;;;;;11.80;10.87;;;19.10;99.90;;;;;;5117818;28;20800;-72
2021/06/21 00:40:24;;;;;;;12.70;11.60;;;19.10;99.90;;;;;;5118103;28;20155;-72
2021/06/21 00:42:50;;;;;;;11.87;10.83;;;19.10;99.90;;;;;;5116644;28;20546;-72
2021/06/21 00:45:20;;;;;;;12.23;11.33;;;19.10;99.90;;;;;;5118310;28;20411;-72
2021/06/21 00:47:46;;;;;;;12.50;11.50;;;19.10;99.90;;;;;;5116139;28;20169;-72
2021/06/21 00:50:12;;;;;;;11.90;10.90;;;19.10;99.90;;;;;;5116103;28;20408;-72
2021/06/21 00:52:38;;;;;;;12.50;11.33;;;19.10;99.90;;;;;;5117115;28;20407;-72
2021/06/21 00:55:04;;;;;;;11.17;10.27;;;19.10;99.90;;;;;;5116446;28;20440;-72
2021/06/21 00:57:33;;;;;;;12.07;11.07;;;19.10;99.90;;;;;;5116214;28;20162;-72
2021/06/21 01:00:00;;;;;;;11.60;10.70;;;19.10;99.90;;;;;;5095781;28;20523;-72
2021/06/21 01:02:27;;;;;;;13.47;12.17;;;19.10;99.90;;;;;;5095890;28;20401;-72
2021/06/21 01:04:54;;;;;;;13.47;12.27;;;19.20;99.90;;;;;;5096179;28;20769;-72
2021/06/21 01:07:20;;;;;;;14.23;13.13;;;19.20;99.90;;;;;;5095580;28;20500;-72
2021/06/21 01:09:49;;;;;;;13.97;12.67;;;19.20;99.90;;;;;;5095670;28;20408;-72
2021/06/21 01:12:31;;;;;;;14.20;13.00;;;19.20;99.90;;;;;;5111928;28;20174;-72
2021/06/21 01:15:03;;;;;;;14.40;13.10;;;19.20;99.90;;;;;;5115643;28;20804;-72
2021/06/21 01:17:36;;;;;;;15.00;13.70;;;19.20;99.90;;;;;;5116422;28;20760;-72
2021/06/21 01:20:41;;;;;;;15.37;14.07;;;19.20;99.90;;;;;;5117372;28;20411;-72
2021/06/21 01:23:36;;;;;;;17.40;15.87;;;19.10;99.90;;;;;;5114733;28;20745;-72
2021/06/21 01:26:08;;;;;;;15.33;14.03;;;19.10;99.90;;;;;;5115091;28;20430;-72
2021/06/21 01:33:50;;;;;;;18.63;16.70;;;19.10;99.90;;;;;;5127728;27;20327;-72
2021/06/21 01:36:19;;;;;;;19.00;17.30;;;19.00;99.90;;;;;;5095575;28;20408;-72
2021/06/21 01:38:51;;;;;;;19.67;18.07;;;19.00;99.90;;;;;;5090538;28;20397;-72
2021/06/21 01:41:25;;;;;;;21.27;19.43;;;19.10;99.90;;;;;;5090214;28;20408;-72
2021/06/21 01:43:53;;;;;;;20.60;18.73;;;19.10;99.90;;;;;;5090289;28;20403;-72
2021/06/21 01:46:20;;;;;;;21.70;19.70;;;19.00;99.90;;;;;;5090416;28;20393;-72
2021/06/21 01:48:54;;;;;;;22.30;20.20;;;19.00;99.90;;;;;;5092718;28;20784;-72
2021/06/21 01:51:22;;;;;;;22.73;20.43;;;19.00;99.90;;;;;;5111590;28;20400;-72
2021/06/21 01:53:51;;;;;;;23.47;21.37;;;19.00;99.90;;;;;;5110595;28;20397;-72
2021/06/21 01:56:24;;;;;;;26.57;24.07;;;18.90;99.90;;;;;;5109780;28;20400;-71
2021/06/21 01:58:52;;;;;;;27.47;24.97;;;18.90;99.90;;;;;;5109847;28;20416;-72
2021/06/21 02:01:19;;;;;;;29.17;26.27;;;18.80;99.90;;;;;;5109660;28;20403;-72
2021/06/21 02:03:49;;;;;;;30.57;27.90;;;18.80;99.90;;;;;;5109907;28;20469;-71
2021/06/21 02:06:16;;;;;;;29.53;26.97;;;18.70;99.90;;;;;;5109662;28;20555;-72
2021/06/21 02:08:44;;;;;;;32.57;29.47;;;18.70;99.90;;;;;;5109765;28;20541;-72
2021/06/21 02:11:10;;;;;;;32.77;29.73;;;18.60;99.90;;;;;;5102263;28;20423;-72
2021/06/21 02:13:37;;;;;;;31.77;28.97;;;18.60;99.90;;;;;;5089099;28;20445;-72
2021/06/21 02:16:04;;;;;;;33.00;29.30;;;18.60;99.90;;;;;;5089124;28;20872;-72
2021/06/21 02:18:31;;;;;;;39.67;31.13;;;18.60;99.90;;;;;;5089575;28;20404;-71
2021/06/21 02:20:57;;;;;;;37.20;33.60;;;18.60;99.90;;;;;;5089437;28;20397;-72
2021/06/21 02:23:24;;;;;;;36.77;33.07;;;18.50;99.90;;;;;;5097328;28;20799;-73
2021/06/21 02:25:52;;;;;;;39.03;34.97;;;18.50;99.90;;;;;;5109421;28;20420;-73
2021/06/21 02:28:20;;;;;;;43.17;37.50;;;18.40;99.90;;;;;;5109514;28;20444;-73
2021/06/21 02:30:49;;;;;;;40.87;36.43;;;18.40;99.90;;;;;;5109292;28;20455;-73
2021/06/21 02:33:16;;;;;;;42.07;37.63;;;18.30;99.90;;;;;;5109155;28;20887;-72
2021/06/21 02:35:42;;;;;;;42.07;37.87;;;18.30;99.90;;;;;;5098374;28;20411;-72
2021/06/21 02:38:08;;;;;;;42.03;37.83;;;18.30;99.90;;;;;;5088723;28;20393;-72
2021/06/21 02:40:34;;;;;;;42.97;38.67;;;18.30;99.90;;;;;;5098089;28;20923;-72
2021/06/21 02:43:00;;;;;;;44.37;39.67;;;18.30;99.90;;;;;;5088737;28;20185;-72
2021/06/21 02:45:25;;;;;;;45.97;41.40;;;18.30;99.90;;;;;;5075224;28;20398;-69
2021/06/21 02:47:51;;;;;;;43.13;38.63;;;18.30;99.90;;;;;;5075173;28;20169;-69
2021/06/21 02:50:17;;;;;;;46.00;41.40;;;18.30;99.90;;;;;;5075263;28;20154;-69
2021/06/21 02:58:33;;;;;;;41.80;37.70;;;18.30;99.90;;;;;;5130335;27;20360;-70
2021/06/21 03:01:04;;;;;;;38.77;34.83;;;18.30;99.90;;;;;;5110854;28;20791;-69
2021/06/21 03:03:35;;;;;;;42.70;38.50;;;18.30;99.90;;;;;;5110328;28;20385;-69
2021/06/21 03:06:02;;;;;;;42.70;38.40;;;18.30;99.90;;;;;;5110513;28;20405;-69
2021/06/21 03:08:28;;;;;;;43.07;38.57;;;18.30;99.90;;;;;;5110469;28;20396;-69
2021/06/21 03:10:56;;;;;;;41.50;37.17;;;18.30;99.90;;;;;;5110002;28;20403;-69
2021/06/21 03:13:22;;;;;;;44.30;39.60;;;18.30;99.90;;;;;;5110121;28;20381;-69
2021/06/21 03:15:51;;;;;;;45.70;40.70;;;18.20;99.90;;;;;;5109909;28;20773;-69
2021/06/21 03:18:20;;;;;;;45.37;40.47;;;18.30;99.90;;;;;;5110418;28;20451;-69
2021/06/21 03:20:53;;;;;;;42.77;38.40;;;18.30;99.90;;;;;;5110374;28;20815;-69
2021/06/21 03:23:22;;;;;;;44.30;39.70;;;18.30;99.90;;;;;;5110187;28;20394;-69
2021/06/21 03:25:51;;;;;;;44.03;39.47;;;18.30;99.90;;;;;;5109635;28;20405;-69
2021/06/21 03:28:17;;;;;;;45.43;39.77;;;18.40;99.90;;;;;;5109804;28;20408;-69
2021/06/21 03:30:46;;;;;;;44.27;39.50;;;18.40;99.90;;;;;;5109851;28;20765;-69
2021/06/21 03:33:12;;;;;;;36.40;32.70;;;18.40;99.90;;;;;;5109962;28;20159;-69
2021/06/21 03:35:38;;;;;;;33.83;30.50;;;18.40;99.90;;;;;;5109784;28;20564;-69
2021/06/21 03:38:19;;;;;;;33.20;30.10;;;18.40;99.90;;;;;;5109647;28;20196;-69
2021/06/21 03:40:45;;;;;;;32.77;29.33;;;18.40;99.90;;;;;;5109563;28;20181;-69
2021/06/21 03:43:20;;;;;;;32.20;29.20;;;18.40;99.90;;;;;;5109427;28;20408;-69
2021/06/21 03:45:48;;;;;;;31.40;28.30;;;18.40;99.90;;;;;;5109463;28;20449;-69
2021/06/21 03:48:14;;;;;;;31.47;28.53;;;18.40;99.90;;;;;;5109916;28;20767;-69
2021/06/21 03:50:40;;;;;;;33.90;30.27;;;18.50;99.90;;;;;;5109651;28;20403;-69
2021/06/21 03:53:06;;;;;;;31.97;28.83;;;18.50;99.90;;;;;;5109309;28;20195;-69
2021/06/21 03:55:33;;;;;;;29.43;26.63;;;18.50;99.90;;;;;;5109289;28;20192;-69
2021/06/21 03:57:59;;;;;;;29.77;26.97;;;18.50;99.90;;;;;;5109163;28;20983;-69
2021/06/21 04:00:27;;;;;;;28.00;25.10;;;18.60;99.90;;;;;;5109312;28;20421;-69
2021/06/21 04:02:54;;;;;;;27.30;24.90;;;18.60;99.90;;;;;;5109465;28;20397;-69
2021/06/21 04:05:20;;;;;;;26.80;24.27;;;18.60;99.90;;;;;;5109001;28;20416;-69
2021/06/21 04:07:46;;;;;;;28.13;25.37;;;18.60;99.90;;;;;;5107342;28;20393;-69
2021/06/21 04:10:15;;;;;;;28.87;26.07;;;18.60;99.90;;;;;;5095143;28;20456;-69
2021/06/21 04:12:40;;;;;;;27.07;24.47;;;18.60;99.90;;;;;;5095348;28;20463;-69
2021/06/21 04:15:09;;;;;;;27.83;25.23;;;18.60;99.90;;;;;;5095625;28;20390;-69
2021/06/21 04:17:36;;;;;;;29.33;26.40;;;18.70;99.90;;;;;;5095507;28;20195;-69
2021/06/21 04:20:05;;;;;;;23.50;21.27;;;18.70;99.90;;;;;;5095145;28;20814;-69
2021/06/21 04:22:30;;;;;;;18.90;17.20;;;18.80;99.90;;;;;;5094999;28;20448;-69
2021/06/21 04:24:56;;;;;;;11.80;8.73;;;18.80;99.90;;;;;;5095061;28;20828;-69
2021/06/21 04:27:22;;;;;;;11.20;8.47;;;18.60;99.90;;;;;;5095874;28;20527;-69
2021/06/21 04:29:47;;;;;;;7.57;6.40;;;18.60;99.90;;;;;;5095905;28;20171;-69
2021/06/21 04:32:13;;;;;;;10.67;7.70;;;18.50;99.90;;;;;;5095426;28;20516;-69
2021/06/21 04:34:38;;;;;;;10.10;6.10;;;18.60;99.90;;;;;;5094878;28;20556;-69
2021/06/21 04:37:04;;;;;;;13.70;6.20;;;18.40;99.90;;;;;;5094850;28;20211;-69
2021/06/21 04:39:30;;;;;;;15.53;6.00;;;18.40;99.90;;;;;;5094841;28;20655;-69
2021/06/21 04:41:55;;;;;;;9.37;6.50;;;18.40;99.90;;;;;;5094895;28;20412;-69
2021/06/21 04:44:21;;;;;;;9.10;5.90;;;18.50;99.90;;;;;;5095149;28;20154;-69
2021/06/21 04:46:46;;;;;;;10.30;6.00;;;18.50;99.90;;;;;;5094883;28;20202;-69
2021/06/21 04:49:13;;;;;;;9.07;6.53;;;18.50;99.90;;;;;;5094624;28;20220;-68
2021/06/21 04:51:41;;;;;;;9.47;5.53;;;18.50;99.90;;;;;;5094693;28;20563;-68
2021/06/21 04:54:07;;;;;;;11.33;5.30;;;18.60;99.90;;;;;;5094674;28;20484;-66
2021/06/21 04:56:35;;;;;;;9.10;5.60;;;18.60;99.90;;;;;;5094216;28;20539;-66
2021/06/21 04:59:02;;;;;;;8.50;5.57;;;18.60;99.90;;;;;;5094716;28;20280;-66
2021/06/21 05:01:28;;;;;;;9.30;6.13;;;18.60;99.90;;;;;;5094653;28;20402;-66
2021/06/21 05:03:53;;;;;;;6.73;5.63;;;18.60;99.90;;;;;;5088600;28;20443;-67
2021/06/21 05:06:19;;;;;;;8.20;5.40;;;18.60;99.90;;;;;;5084342;28;20641;-66
2021/06/21 05:08:46;;;;;;;9.90;5.10;;;18.70;99.90;;;;;;5082670;28;20224;-66
2021/06/21 05:11:12;;;;;;;8.73;5.50;;;18.70;99.90;;;;;;5092367;28;20248;-66
2021/06/21 05:13:37;;;;;;;7.53;4.43;;;18.80;99.90;;;;;;5085834;28;20444;-66
2021/06/21 05:16:03;;;;;;;6.40;4.33;;;18.80;99.90;;;;;;5086777;28;20186;-66
2021/06/21 05:18:28;;;;;;;10.93;5.17;;;18.80;99.90;;;;;;5093756;28;20265;-67
2021/06/21 05:20:54;;;;;;;10.00;4.97;;;18.90;99.90;;;;;;5077614;28;20268;-67
2021/06/21 05:23:19;;;;;;;12.23;5.27;;;18.90;99.90;;;;;;5090327;28;20196;-67
2021/06/21 05:25:45;;;;;;;7.97;5.17;;;18.90;99.90;;;;;;5085843;28;20624;-67
2021/06/21 05:28:11;;;;;;;7.77;4.57;;;19.00;99.90;;;;;;5090285;28;20666;-67
2021/06/21 05:30:36;;;;;;;7.30;4.07;;;19.00;99.90;;;;;;5086707;28;20183;-67
2021/06/21 05:33:02;;;;;;;12.43;4.30;;;19.10;99.90;;;;;;5084797;28;20180;-66
2021/06/21 05:35:27;;;;;;;13.03;4.80;;;19.10;99.90;;;;;;5085233;28;20638;-67
2021/06/21 05:37:53;;;;;;;9.03;4.77;;;19.10;99.90;;;;;;5091280;28;20195;-67
2021/06/21 05:40:20;;;;;;;7.90;4.00;;;19.10;99.90;;;;;;5077845;28;20175;-66
2021/06/21 05:42:46;;;;;;;5.00;3.70;;;19.10;99.90;;;;;;5087710;28;20184;-67
2021/06/21 05:45:12;;;;;;;5.17;3.73;;;19.10;99.90;;;;;;5075593;28;20440;-67
2021/06/21 05:47:37;;;;;;;5.67;3.80;;;19.10;99.90;;;;;;5083916;28;20182;-68
2021/06/21 05:50:04;;;;;;;6.77;4.83;;;19.10;99.90;;;;;;5085349;28;20516;-67
2021/06/21 05:52:30;;;;;;;6.73;4.27;;;19.20;99.90;;;;;;5080342;28;20191;-67
2021/06/21 05:54:59;;;;;;;5.20;4.07;;;19.30;99.90;;;;;;5087187;28;20442;-67
2021/06/21 05:57:26;;;;;;;7.00;3.70;;;19.40;99.90;;;;;;5084412;28;20209;-67
2021/06/21 05:59:52;;;;;;;11.70;5.00;;;19.50;99.90;;;;;;5091656;28;20494;-67
2021/06/21 06:02:18;;;;;;;7.90;4.03;;;19.60;99.90;;;;;;5081118;28;20437;-67
2021/06/21 06:04:43;;;;;;;7.73;3.80;;;19.60;99.90;;;;;;5081226;28;21805;-67
2021/06/21 06:07:09;;;;;;;6.43;4.20;;;19.60;99.90;;;;;;5084875;28;20726;-67
2021/06/21 06:09:35;;;;;;;5.93;4.47;;;19.70;99.90;;;;;;5084693;28;20179;-67
2021/06/21 06:12:01;;;;;;;8.87;4.37;;;19.70;99.90;;;;;;5088796;28;20707;-67
2021/06/21 06:14:26;;;;;;;11.00;4.40;;;19.90;99.90;;;;;;5085593;28;20186;-67
2021/06/21 06:16:54;;;;;;;9.10;3.87;;;19.90;99.90;;;;;;5087772;28;20663;-67
2021/06/21 06:19:20;;;;;;;12.13;4.00;;;20.00;99.90;;;;;;5088459;28;20206;-67
2021/06/21 06:21:46;;;;;;;8.10;5.13;;;20.00;99.90;;;;;;5090869;28;20428;-67
2021/06/21 06:24:13;;;;;;;6.83;3.90;;;20.00;99.90;;;;;;5084219;28;21291;-67
2021/06/21 06:26:42;;;;;;;9.93;3.90;;;20.10;99.90;;;;;;5085239;28;20600;-67
2021/06/21 06:29:08;;;;;;;7.87;3.90;;;20.10;99.90;;;;;;5087192;28;20473;-67
2021/06/21 06:31:34;;;;;;;8.00;4.17;;;20.10;99.90;;;;;;5088086;28;20471;-67
2021/06/21 06:34:00;;;;;;;9.10;4.50;;;20.20;99.90;;;;;;5079308;28;20179;-67
2021/06/21 06:36:25;;;;;;;9.30;3.53;;;20.40;99.90;;;;;;5083713;28;20244;-67
2021/06/21 06:38:51;;;;;;;8.63;3.67;;;20.40;99.90;;;;;;5087714;28;20478;-67
2021/06/21 06:41:17;;;;;;;7.33;4.17;;;20.50;99.90;;;;;;5085946;28;20180;-67
2021/06/21 06:43:42;;;;;;;7.03;3.50;;;20.50;99.90;;;;;;5076878;28;20198;-67
2021/06/21 06:46:09;;;;;;;8.20;3.70;;;20.50;99.90;;;;;;5088409;28;20189;-67
2021/06/21 06:48:34;;;;;;;5.50;3.30;;;20.40;99.90;;;;;;5080876;28;20174;-67
2021/06/21 06:51:00;;;;;;;8.27;3.43;;;20.50;99.90;;;;;;5088964;28;20828;-67
2021/06/21 06:53:35;;;;;;;9.23;3.83;;;20.60;99.90;;;;;;5088952;28;20206;-67
2021/06/21 06:58:46;;;;;;;5.53;3.40;;;20.80;99.90;;;;;;5078023;28;20456;-67
2021/06/21 07:01:11;;;;;;;11.60;3.53;;;20.80;99.90;;;;;;5087307;28;20541;-67
2021/06/21 07:03:37;;;;;;;4.00;3.00;;;20.90;99.90;;;;;;5082615;28;20181;-67
2021/06/21 07:06:03;;;;;;;6.70;3.70;;;21.10;99.90;;;;;;5085127;28;20184;-67
2021/06/21 07:08:31;;;;;;;5.73;3.80;;;21.30;99.90;;;;;;5075157;28;20189;-67
2021/06/21 07:10:56;;;;;;;5.20;3.57;;;21.50;99.90;;;;;;5083663;28;20571;-67
2021/06/21 07:13:22;;;;;;;7.30;3.63;;;21.70;99.90;;;;;;5084787;28;20443;-67
2021/06/21 07:15:49;;;;;;;8.87;4.10;;;22.00;99.90;;;;;;5089878;28;20177;-67
2021/06/21 07:18:14;;;;;;;13.30;3.30;;;22.20;99.90;;;;;;5087718;28;20213;-67
2021/06/21 07:20:40;;;;;;;5.63;3.23;;;22.30;99.90;;;;;;5084027;28;20500;-67
2021/06/21 07:23:05;;;;;;;5.10;2.73;;;22.30;99.90;;;;;;5082541;28;20170;-67
2021/06/21 07:25:31;;;;;;;7.40;2.90;;;22.20;99.90;;;;;;5083977;28;20589;-67
2021/06/21 07:27:57;;;;;;;10.73;3.50;;;22.00;99.90;;;;;;5082220;28;20183;-67
2021/06/21 07:30:23;;;;;;;5.13;2.97;;;22.00;99.90;;;;;;5089425;28;20966;-67
2021/06/21 07:32:49;;;;;;;4.77;2.90;;;21.80;99.90;;;;;;5087061;28;20686;-67
2021/06/21 07:35:14;;;;;;;6.10;3.20;;;21.60;99.90;;;;;;5084538;28;20433;-67
2021/06/21 07:37:40;;;;;;;4.17;2.93;;;21.60;99.90;;;;;;5087912;28;20203;-67
2021/06/21 07:40:06;;;;;;;8.47;2.90;;;21.60;99.90;;;;;;5087400;28;20644;-67
2021/06/21 07:42:32;;;;;;;13.63;2.93;;;21.70;99.90;;;;;;5081842;28;20183;-67
2021/06/21 07:44:57;;;;;;;6.60;2.00;;;22.10;99.90;;;;;;5087868;28;20916;-67
2021/06/21 07:47:23;;;;;;;4.40;2.23;;;22.40;99.90;;;;;;5088881;28;20663;-67
2021/06/21 07:49:49;;;;;;;4.20;2.53;;;23.00;99.90;;;;;;5091304;28;20794;-67
2021/06/21 07:52:14;;;;;;;7.17;2.63;;;23.80;99.90;;;;;;5084941;28;20190;-67
2021/06/21 07:54:40;;;;;;;4.93;2.40;;;24.30;99.90;;;;;;5083927;28;20552;-67
2021/06/21 07:57:06;;;;;;;8.50;2.00;;;24.70;99.90;;;;;;5085952;28;20203;-67
2021/06/21 07:59:31;;;;;;;9.30;2.43;;;25.40;99.90;;;;;;5087526;28;20572;-67
2021/06/21 08:01:57;;;;;;;3.90;1.80;;;26.00;99.90;;;;;;5084558;28;20179;-67
2021/06/21 08:04:22;;;;;;;5.30;1.80;;;27.00;99.90;;;;;;5085415;28;20179;-67
2021/06/21 08:06:48;;;;;;;3.20;1.70;;;27.80;99.90;;;;;;5086155;28;20204;-67
2021/06/21 08:09:14;;;;;;;4.57;2.23;;;28.00;99.90;;;;;;5085880;28;20576;-67
2021/06/21 08:11:39;;;;;;;3.93;2.90;;;28.00;99.90;;;;;;5084922;28;20273;-67
2021/06/21 08:14:05;;;;;;;2.93;1.80;;;27.60;99.90;;;;;;5086184;28;20524;-67
2021/06/21 08:16:32;;;;;;;3.07;1.40;;;27.40;99.90;;;;;;5084586;28;20198;-67
2021/06/21 08:18:58;;;;;;;3.90;1.90;;;27.10;99.90;;;;;;5086079;28;20270;-67
2021/06/21 08:21:24;;;;;;;4.30;2.10;;;26.60;99.90;;;;;;5091154;28;20513;-67
2021/06/21 08:23:50;;;;;;;6.70;1.90;;;26.20;99.90;;;;;;5090594;28;20440;-67
2021/06/21 08:26:16;;;;;;;4.80;2.47;;;25.60;99.90;;;;;;5086889;28;20420;-67
2021/06/21 08:28:41;;;;;;;4.00;1.80;;;25.10;99.90;;;;;;5088237;28;20228;-67
2021/06/21 08:31:07;;;;;;;4.60;1.60;;;24.60;99.90;;;;;;5090605;28;20554;-67
2021/06/21 08:33:33;;;;;;;3.90;1.80;;;24.40;99.90;;;;;;5082134;28;20183;-67
2021/06/21 08:35:58;;;;;;;3.33;1.90;;;24.20;99.90;;;;;;5090962;28;20206;-68
2021/06/21 08:38:24;;;;;;;2.80;1.50;;;24.30;99.90;;;;;;5088942;28;20207;-68
2021/06/21 08:40:51;;;;;;;3.93;2.10;;;24.40;99.90;;;;;;5088294;28;20266;-68
2021/06/21 08:43:16;;;;;;;3.90;1.80;;;24.30;99.90;;;;;;5088391;28;20181;-68
2021/06/21 08:45:43;;;;;;;4.17;3.20;;;24.30;99.90;;;;;;5088766;28;20839;-68
2021/06/21 08:48:09;;;;;;;7.40;3.40;;;24.10;99.90;;;;;;5086303;28;20174;-68
2021/06/21 08:50:37;;;;;;;6.77;2.77;;;23.90;99.90;;;;;;5086098;28;20478;-67
2021/06/21 08:53:03;;;;;;;8.90;2.90;;;24.30;99.90;;;;;;5088342;28;20424;-67
2021/06/21 08:55:28;;;;;;;6.30;2.30;;;25.20;99.90;;;;;;5087188;28;20647;-68
2021/06/21 08:57:54;;;;;;;5.50;4.70;;;25.50;99.90;;;;;;5081861;28;20281;-68
2021/06/21 09:00:23;;;;;;;8.40;7.60;;;25.60;99.90;;;;;;5083736;28;20198;-68
2021/06/21 09:02:49;;;;;;;13.40;10.20;;;25.60;99.90;;;;;;5078446;28;20176;-68
2021/06/21 09:05:16;;;;;;;12.67;11.67;;;25.70;99.90;;;;;;5081341;28;20992;-68
2021/06/21 09:07:41;;;;;;;16.47;12.60;;;26.20;99.90;;;;;;5080253;28;20436;-68
2021/06/21 09:10:26;;;;;;;14.43;12.93;;;26.90;99.90;;;;;;5083690;28;20751;-68
2021/06/21 09:13:09;;;;;;;16.33;13.93;;;27.50;99.90;;;;;;5084722;28;20183;-68
2021/06/21 09:15:39;;;;;;;20.70;16.20;;;27.50;99.90;;;;;;5086754;28;20420;-68
2021/06/21 09:18:26;;;;;;;19.50;17.80;;;27.30;99.90;;;;;;5086122;28;20540;-67
2021/06/21 09:21:17;;;;;;;20.50;18.40;;;26.90;99.90;;;;;;5086880;28;20463;-67
2021/06/21 09:23:42;;;;;;;22.70;20.40;;;26.40;99.90;;;;;;5083882;28;20502;-68
2021/06/21 09:26:21;;;;;;;24.53;22.37;;;26.20;99.90;;;;;;5083899;28;22153;-68
2021/06/21 09:28:47;;;;;;;29.63;26.67;;;25.70;99.90;;;;;;5085168;28;20210;-68
2021/06/21 09:31:13;;;;;;;27.57;24.80;;;25.40;99.90;;;;;;5087300;28;20832;-68
2021/06/21 09:33:39;;;;;;;30.57;27.53;;;25.00;99.90;;;;;;5085858;28;20192;-69
2021/06/21 09:36:05;;;;;;;35.03;31.60;;;24.80;99.90;;;;;;5089175;28;20795;-68
2021/06/21 09:38:33;;;;;;;35.90;29.97;;;24.30;99.90;;;;;;5086887;28;20198;-68
2021/06/21 09:40:59;;;;;;;32.23;29.03;;;23.90;99.90;;;;;;5080763;28;20436;-68
2021/06/21 09:53:56;;;;;;;30.23;27.17;;;23.30;99.90;;;;;;5114757;27;20621;-69
2021/06/21 09:56:46;;;;;;;33.10;28.03;;;22.20;99.90;;;;;;5095443;28;20425;-69
2021/06/21 10:02:18;;;;;;;29.13;25.47;;;22.00;99.90;;;;;;5120728;27;20344;-69
2021/06/21 10:04:45;;;;;;;31.13;27.70;;;21.60;99.90;;;;;;5089778;28;20799;-68
2021/06/21 10:10:08;;;;;;;25.17;21.37;;;21.30;99.90;;;;;;5112577;27;20296;-69
2021/06/21 10:12:35;;;;;;;26.50;23.70;;;21.20;99.90;;;;;;5103830;28;20455;-68
2021/06/21 10:15:05;;;;;;;23.40;21.00;;;21.00;99.90;;;;;;5098173;28;20863;-68
2021/06/21 10:17:31;;;;;;;20.13;17.93;;;20.90;99.90;;;;;;5100085;28;20424;-68
2021/06/21 10:19:57;;;;;;;17.37;15.47;;;20.90;99.90;;;;;;5100584;28;20436;-68
2021/06/21 10:22:23;;;;;;;15.97;13.50;;;20.80;99.90;;;;;;5105953;28;20199;-68
2021/06/21 10:24:52;;;;;;;13.50;12.20;;;20.80;99.90;;;;;;5100701;28;20177;-68
2021/06/21 10:27:20;;;;;;;13.50;12.10;;;20.80;99.90;;;;;;5099048;28;20447;-68
2021/06/21 10:29:47;;;;;;;11.83;10.43;;;20.80;99.90;;;;;;5097632;28;20454;-68
2021/06/21 10:32:14;;;;;;;11.47;10.37;;;20.70;99.90;;;;;;5098679;28;20852;-68
2021/06/21 10:34:40;;;;;;;14.20;11.70;;;20.60;99.90;;;;;;5099239;28;20525;-68
2021/06/21 10:37:20;;;;;;;11.83;9.73;;;20.60;99.90;;;;;;5099260;28;20477;-69
2021/06/21 10:39:49;;;;;;;9.13;7.70;;;20.50;99.90;;;;;;5101591;28;20933;-69
2021/06/21 10:44:59;;;;;;;8.97;7.70;;;20.40;99.90;;;;;;5115727;27;20399;-68
2021/06/21 10:50:20;;;;;;;5.83;5.33;;;20.30;99.90;;;;;;5115765;27;20332;-69
2021/06/21 11:00:49;;;;;;;4.30;3.87;;;20.20;99.90;;;;;;5100264;27;20357;-68
2021/06/21 11:03:35;;;;;;;7.43;4.97;;;20.40;99.90;;;;;;5061626;28;20415;-68
2021/06/21 11:08:57;;;;;;;3.90;3.53;;;20.50;99.90;;;;;;5129675;27;20747;-68
2021/06/21 11:11:43;;;;;;;4.87;4.00;;;20.40;99.90;;;;;;5102569;28;20420;-68
2021/06/21 11:14:27;;;;;;;4.93;4.53;;;20.30;99.90;;;;;;5100340;28;20772;-68
2021/06/21 11:17:16;;;;;;;6.23;5.40;;;20.30;99.90;;;;;;5100180;28;20509;-68
2021/06/21 11:19:42;;;;;;;6.00;5.50;;;20.10;99.90;;;;;;5098752;28;20463;-68
2021/06/21 11:22:08;;;;;;;5.87;5.47;;;20.00;99.90;;;;;;5101474;28;20420;-68
2021/06/21 11:27:26;;;;;;;7.40;6.70;;;19.90;99.90;;;;;;5126314;27;20666;-69
2021/06/21 11:29:57;;;;;;;7.30;5.73;;;19.80;99.90;;;;;;5111776;28;20442;-69
2021/06/21 11:32:24;;;;;;;6.40;5.80;;;19.70;99.90;;;;;;5104838;28;22416;-69
2021/06/21 11:45:59;;;;;;;4.00;3.70;;;19.60;99.90;;;;;;5115994;27;20832;-67
2021/06/21 11:48:30;;;;;;;5.20;4.70;;;19.50;99.90;;;;;;5100825;28;21023;-67
2021/06/21 11:50:56;;;;;;;4.03;3.73;;;19.40;99.90;;;;;;5103897;28;20435;-67
2021/06/21 11:53:25;;;;;;;5.00;4.60;;;19.40;99.90;;;;;;5095044;28;20440;-67
2021/06/21 11:55:51;;;;;;;4.57;4.17;;;19.30;99.90;;;;;;5099507;28;20436;-67
2021/06/21 11:58:25;;;;;;;4.33;4.03;;;19.30;99.90;;;;;;5098847;28;20442;-67
2021/06/21 12:00:50;;;;;;;6.40;4.20;;;19.20;99.90;;;;;;5084272;28;20220;-67
2021/06/21 12:03:16;;;;;;;5.83;4.50;;;19.20;99.90;;;;;;5085218;28;21610;-67
2021/06/21 12:05:52;;;;;;;6.87;6.27;;;19.20;99.90;;;;;;5085020;28;20194;-67
2021/06/21 12:08:19;;;;;;;7.87;7.27;;;19.20;99.90;;;;;;5088175;28;20275;-67
2021/06/21 12:10:45;;;;;;;9.83;9.03;;;19.20;99.90;;;;;;5086283;28;20817;-68
2021/06/21 12:13:11;;;;;;;11.33;10.33;;;19.20;99.90;;;;;;5084614;28;22950;-67
2021/06/21 12:15:40;;;;;;;13.13;12.03;;;19.10;99.90;;;;;;5072168;28;20890;-67
2021/06/21 12:18:06;;;;;;;14.63;13.43;;;19.10;99.90;;;;;;5087902;28;20955;-67
2021/06/21 12:20:33;;;;;;;13.03;11.87;;;19.00;99.90;;;;;;5085806;28;20432;-67
2021/06/21 12:25:45;;;;;;;14.30;13.17;;;18.90;99.90;;;;;;5132663;27;20305;-68
2021/06/21 12:28:17;;;;;;;15.50;14.30;;;18.90;99.90;;;;;;5106030;28;20452;-68
2021/06/21 12:33:24;;;;;;;13.60;12.40;;;18.90;99.90;;;;;;5132150;27;20683;-68
2021/06/21 12:41:19;;;;;;;10.40;8.33;;;18.80;99.90;;;;;;5123823;27;20304;-68
2021/06/21 12:44:04;;;;;;;6.30;5.77;;;18.70;99.90;;;;;;5086463;28;20843;-68
2021/06/21 12:49:13;;;;;;;5.63;4.63;;;18.70;99.90;;;;;;5123091;27;20355;-68
2021/06/21 12:51:41;;;;;;;3.93;3.63;;;18.70;99.90;;;;;;5105800;28;20924;-68
2021/06/21 12:54:07;;;;;;;3.07;2.87;;;18.80;99.90;;;;;;5104344;28;20439;-68
2021/06/21 13:02:05;;;;;;;4.73;4.27;;;18.80;99.90;;;;;;5113033;27;20290;-67
2021/06/21 13:04:31;;;;;;;8.47;3.73;;;18.80;99.90;;;;;;5097847;28;20428;-68
2021/06/21 13:07:08;;;;;;;4.63;4.27;;;18.80;99.90;;;;;;5096877;28;20443;-67
2021/06/21 13:09:52;;;;;;;3.93;3.63;;;18.70;99.90;;;;;;5106987;28;20558;-68
2021/06/21 13:12:21;;;;;;;5.00;4.60;;;18.70;99.90;;;;;;5104489;28;20793;-68
2021/06/21 13:14:47;;;;;;;3.77;3.50;;;18.70;99.90;;;;;;5105405;28;20460;-68
2021/06/21 13:17:19;;;;;;;3.37;3.07;;;18.70;99.90;;;;;;5105537;28;20438;-68
2021/06/21 13:19:52;;;;;;;6.03;4.87;;;18.70;99.90;;;;;;5100953;28;20777;-68
2021/06/21 13:22:40;;;;;;;6.27;5.67;;;18.70;99.90;;;;;;5100643;28;20496;-68
2021/06/21 13:25:27;;;;;;;6.10;5.60;;;18.80;99.90;;;;;;5101061;28;20431;-68
2021/06/21 13:27:56;;;;;;;9.20;7.20;;;18.70;99.90;;;;;;5098622;28;20440;-68
2021/06/21 13:38:28;;;;;;;21.90;20.00;;;18.70;99.90;;;;;;5127998;27;20290;-68
2021/06/21 13:40:54;;;;;;;20.80;18.80;;;18.60;99.90;;;;;;5104148;28;20773;-69
2021/06/21 13:43:22;;;;;;;20.37;18.63;;;18.60;99.90;;;;;;5106632;28;21005;-68
2021/06/21 13:45:47;;;;;;;16.63;15.23;;;18.60;99.90;;;;;;5101737;28;20431;-68
2021/06/21 13:48:18;;;;;;;17.23;15.63;;;18.60;99.90;;;;;;5110536;28;20777;-69
2021/06/21 13:50:47;;;;;;;16.10;14.80;;;18.60;99.90;;;;;;5115050;27;20181;-69
2021/06/21 13:56:10;;;;;;;18.17;16.77;;;18.60;99.90;;;;;;5120718;27;20450;-68
2021/06/21 13:58:37;;;;;;;17.73;16.23;;;18.60;99.90;;;;;;5099134;28;20820;-68
2021/06/21 14:06:25;;;;;;;17.90;16.50;;;18.60;99.90;;;;;;5111609;27;20311;-68
2021/06/21 14:08:52;;;;;;;18.03;16.50;;;18.40;99.90;;;;;;5104449;28;20435;-68
2021/06/21 14:11:18;;;;;;;20.77;19.03;;;18.40;99.90;;;;;;5103996;28;20429;-68
2021/06/21 14:13:45;;;;;;;26.40;24.00;;;18.30;99.90;;;;;;5097095;28;20428;-68
2021/06/21 14:16:17;;;;;;;27.13;24.77;;;18.30;99.90;;;;;;5090732;28;20424;-68